Time;durP1;ratioP1;P1;durP2;ratioP2;P2;SDS_P1;SDS_P2;PMS_P1;PMS_P2;Temp;Humidity;BMP_temperature;BMP_pressure;BME280_temperature;BME280_humidity;BME280_pressure;Samples;Min_cycle;Max_cycle;Signal;HPM_P1;HPM_P2
2021/08/13 00:01:42;;;;;;;4.40;1.05;;;12.40;70.10;;;;;;5061972;28;20464;-72
2021/08/13 00:04:09;;;;;;;1.98;0.73;;;12.40;70.20;;;;;;5059213;28;20017;-71
2021/08/13 00:06:40;;;;;;;2.22;1.10;;;12.40;70.10;;;;;;5057078;28;20024;-71
2021/08/13 00:09:10;;;;;;;3.83;1.52;;;12.50;70.20;;;;;;5060084;28;20064;-72
2021/08/13 00:11:38;;;;;;;0.73;0.50;;;12.50;70.10;;;;;;5058263;28;20078;-72
2021/08/13 00:14:06;;;;;;;1.58;0.52;;;12.50;70.10;;;;;;5057243;28;20067;-72
2021/08/13 00:16:33;;;;;;;1.55;0.80;;;12.40;69.90;;;;;;5056198;28;20056;-72
2021/08/13 00:19:01;;;;;;;2.70;1.10;;;12.40;69.80;;;;;;5060442;28;20021;-71
2021/08/13 00:21:28;;;;;;;3.45;0.80;;;12.40;69.70;;;;;;5058451;28;20041;-72
2021/08/13 00:23:55;;;;;;;3.95;0.77;;;12.40;69.70;;;;;;5052653;28;20044;-71
2021/08/13 00:26:21;;;;;;;3.60;1.10;;;12.40;69.80;;;;;;5057977;28;20035;-72
2021/08/13 00:28:48;;;;;;;4.25;0.70;;;12.30;69.70;;;;;;5059781;28;20017;-72
2021/08/13 00:31:15;;;;;;;3.50;0.75;;;12.30;69.80;;;;;;5054083;28;20024;-71
2021/08/13 00:33:41;;;;;;;2.25;0.90;;;12.30;69.80;;;;;;5058227;28;20017;-72
2021/08/13 00:36:08;;;;;;;3.13;0.77;;;12.30;70.00;;;;;;5054898;28;20380;-72
2021/08/13 00:38:34;;;;;;;3.28;0.57;;;12.30;70.10;;;;;;5061079;28;20056;-72
2021/08/13 00:41:03;;;;;;;3.35;0.57;;;12.40;70.20;;;;;;5056773;28;20543;-72
2021/08/13 00:43:30;;;;;;;4.32;0.50;;;12.40;70.10;;;;;;5055501;28;20040;-72
2021/08/13 00:45:57;;;;;;;6.15;1.15;;;12.30;70.10;;;;;;5059425;28;20043;-72
2021/08/13 00:48:23;;;;;;;3.53;0.88;;;12.30;70.10;;;;;;5060893;28;20422;-71
2021/08/13 00:50:50;;;;;;;3.13;0.77;;;12.30;70.20;;;;;;5051072;28;20021;-72
2021/08/13 00:53:17;;;;;;;4.75;0.93;;;12.30;70.30;;;;;;5054046;28;20123;-72
2021/08/13 00:55:45;;;;;;;2.88;0.57;;;12.30;70.40;;;;;;5060017;28;20021;-72
2021/08/13 00:58:12;;;;;;;3.33;0.85;;;12.30;70.40;;;;;;5056317;28;20024;-72
2021/08/13 01:00:39;;;;;;;5.10;0.98;;;12.30;70.40;;;;;;5060507;28;20056;-71
2021/08/13 01:03:05;;;;;;;1.52;1.35;;;12.30;70.20;;;;;;5057705;28;20396;-71
2021/08/13 01:05:32;;;;;;;4.15;1.42;;;12.20;70.40;;;;;;5056710;28;20021;-73
2021/08/13 01:07:58;;;;;;;2.47;1.52;;;12.20;70.50;;;;;;5057136;28;20059;-72
2021/08/13 01:10:25;;;;;;;4.22;1.17;;;12.20;70.70;;;;;;5052362;28;20060;-72
2021/08/13 01:13:07;;;;;;;2.00;1.08;;;12.20;70.60;;;;;;5058581;28;20472;-73
2021/08/13 01:15:39;;;;;;;1.42;0.73;;;12.20;70.50;;;;;;5055351;28;20104;-72
2021/08/13 01:18:24;;;;;;;2.47;0.57;;;12.10;70.40;;;;;;5054924;28;20021;-72
2021/08/13 01:21:08;;;;;;;4.28;1.08;;;12.10;70.40;;;;;;5058721;28;20028;-72
2021/08/13 01:23:52;;;;;;;4.53;1.00;;;12.10;70.40;;;;;;5054895;28;20064;-72
2021/08/13 01:26:20;;;;;;;1.88;0.70;;;12.10;70.70;;;;;;5057241;28;20035;-72
2021/08/13 01:28:49;;;;;;;3.97;0.90;;;12.10;70.60;;;;;;5057880;28;20105;-72
2021/08/13 01:31:21;;;;;;;4.85;1.63;;;12.10;70.70;;;;;;5052586;28;20028;-72
2021/08/13 01:33:55;;;;;;;6.53;1.80;;;12.10;70.80;;;;;;5055418;28;20039;-73
2021/08/13 01:36:22;;;;;;;20.70;10.77;;;12.10;71.00;;;;;;5051560;28;20033;-73
2021/08/13 01:38:51;;;;;;;11.63;6.45;;;12.20;71.50;;;;;;5056438;28;20388;-72
2021/08/13 01:41:18;;;;;;;4.32;1.55;;;12.20;71.40;;;;;;5057830;28;20546;-72
2021/08/13 01:44:27;;;;;;;4.43;1.00;;;12.20;71.10;;;;;;5056033;28;20017;-73
2021/08/13 01:47:33;;;;;;;4.65;1.08;;;12.20;71.00;;;;;;5060030;28;20013;-71
2021/08/13 01:50:39;;;;;;;6.63;1.30;;;12.20;70.80;;;;;;5059648;28;20025;-72
2021/08/13 01:53:45;;;;;;;2.20;1.10;;;12.20;70.60;;;;;;5056608;28;20021;-74
2021/08/13 01:56:51;;;;;;;2.13;0.70;;;12.10;70.40;;;;;;5055702;28;20028;-72
2021/08/13 01:59:57;;;;;;;2.60;0.82;;;12.10;70.40;;;;;;5059735;28;20020;-73
2021/08/13 02:03:03;;;;;;;3.95;0.60;;;12.10;70.80;;;;;;5054104;28;20514;-74
2021/08/13 02:06:09;;;;;;;4.38;1.00;;;12.10;70.70;;;;;;5055026;28;20028;-72
2021/08/13 02:09:15;;;;;;;6.38;0.80;;;12.10;70.70;;;;;;5051793;28;20020;-72
2021/08/13 02:12:21;;;;;;;9.05;1.10;;;12.10;70.60;;;;;;5054378;28;20066;-70
2021/08/13 02:15:28;;;;;;;2.42;0.57;;;12.10;70.70;;;;;;5053153;28;20040;-72
2021/08/13 02:18:37;;;;;;;3.70;1.17;;;12.10;70.80;;;;;;5057793;28;20021;-71
2021/08/13 02:21:43;;;;;;;3.00;0.80;;;12.10;70.60;;;;;;5055250;28;20040;-73
2021/08/13 02:24:49;;;;;;;3.13;0.80;;;12.00;70.70;;;;;;5060772;28;20021;-71
2021/08/13 02:27:55;;;;;;;4.95;0.65;;;12.10;70.70;;;;;;5061517;28;20507;-71
2021/08/13 02:31:01;;;;;;;4.32;1.00;;;12.10;70.60;;;;;;5058751;28;20070;-71
2021/08/13 02:34:07;;;;;;;9.02;2.75;;;12.10;70.60;;;;;;5058884;28;20476;-72
2021/08/13 02:37:16;;;;;;;28.20;16.83;;;12.10;70.50;;;;;;5058933;28;20024;-71
2021/08/13 02:40:26;;;;;;;3.92;2.97;;;12.10;71.20;;;;;;5046728;28;20049;-71
2021/08/13 02:43:24;;;;;;;2.55;1.35;;;12.10;70.40;;;;;;5052800;28;20104;-70
2021/08/13 02:46:30;;;;;;;4.97;1.83;;;12.10;70.20;;;;;;5051971;28;20533;-71
2021/08/13 02:49:36;;;;;;;5.93;0.98;;;12.10;70.20;;;;;;5056005;28;20017;-70
2021/08/13 02:52:45;;;;;;;3.28;0.82;;;12.00;70.10;;;;;;5054051;28;20384;-71
2021/08/13 02:55:34;;;;;;;1.55;0.68;;;12.00;70.30;;;;;;5055456;28;20119;-70
2021/08/13 02:58:40;;;;;;;5.30;1.55;;;12.00;70.40;;;;;;5050196;28;20052;-71
2021/08/13 03:01:13;;;;;;;4.20;0.77;;;12.00;70.60;;;;;;5057771;28;20365;-71
2021/08/13 03:03:41;;;;;;;2.28;0.88;;;11.90;70.40;;;;;;5055672;28;20499;-72
2021/08/13 03:06:10;;;;;;;7.90;1.13;;;12.00;70.80;;;;;;5055546;28;20062;-71
2021/08/13 03:08:38;;;;;;;12.73;2.35;;;11.90;70.80;;;;;;5059461;28;20017;-71
2021/08/13 03:11:05;;;;;;;5.90;1.27;;;12.00;70.90;;;;;;5048958;28;20040;-71
2021/08/13 03:13:33;;;;;;;5.25;1.02;;;12.00;70.80;;;;;;5056507;28;20018;-70
2021/08/13 03:16:00;;;;;;;21.48;11.20;;;12.00;70.90;;;;;;5052804;28;20551;-72
2021/08/13 03:18:28;;;;;;;61.95;39.88;;;12.00;71.10;;;;;;5052187;28;20021;-72
2021/08/13 03:20:56;;;;;;;11.77;7.43;;;12.00;71.20;;;;;;5056280;28;20032;-72
2021/08/13 03:23:23;;;;;;;4.53;1.90;;;12.00;71.00;;;;;;5056032;28;20013;-72
2021/08/13 03:25:50;;;;;;;4.35;1.05;;;12.10;70.90;;;;;;5051391;28;20504;-72
2021/08/13 03:28:17;;;;;;;3.05;0.63;;;12.00;70.70;;;;;;5056383;28;20103;-72
2021/08/13 03:30:45;;;;;;;3.53;1.00;;;12.00;70.70;;;;;;5057182;28;20012;-70
2021/08/13 03:33:13;;;;;;;6.47;1.05;;;12.00;70.80;;;;;;5054469;28;20457;-70
2021/08/13 03:35:41;;;;;;;3.28;0.82;;;12.00;70.90;;;;;;5052247;28;20024;-72
2021/08/13 03:38:09;;;;;;;6.40;1.05;;;12.00;70.90;;;;;;5055286;28;20065;-71
2021/08/13 03:40:36;;;;;;;3.55;1.23;;;11.90;70.90;;;;;;5059420;28;20252;-70
2021/08/13 03:43:03;;;;;;;6.57;1.80;;;11.90;71.00;;;;;;5057110;28;20044;-71
2021/08/13 03:45:30;;;;;;;8.85;1.70;;;11.90;71.20;;;;;;5057632;28;20487;-71
2021/08/13 03:47:57;;;;;;;7.03;1.00;;;11.90;71.40;;;;;;5056093;28;20013;-71
2021/08/13 03:50:23;;;;;;;7.32;2.00;;;11.90;71.40;;;;;;5053601;28;20029;-72
2021/08/13 03:52:50;;;;;;;5.70;1.08;;;11.90;71.40;;;;;;5053921;28;20076;-72
2021/08/13 03:55:17;;;;;;;5.68;1.85;;;11.90;71.60;;;;;;5054718;28;20522;-71
2021/08/13 03:57:44;;;;;;;3.70;1.38;;;11.90;71.90;;;;;;5050750;28;20509;-74
2021/08/13 04:00:11;;;;;;;5.00;1.85;;;11.90;71.80;;;;;;5050034;28;20052;-72
2021/08/13 04:02:38;;;;;;;29.83;20.13;;;11.90;71.70;;;;;;5051709;28;20020;-69
2021/08/13 04:05:05;;;;;;;40.15;27.13;;;11.90;71.90;;;;;;5058750;28;20021;-67
2021/08/13 04:07:32;;;;;;;19.02;8.52;;;11.80;71.90;;;;;;5051242;28;20383;-71
2021/08/13 04:09:59;;;;;;;7.57;4.32;;;11.80;72.00;;;;;;5060004;28;20044;-71
2021/08/13 04:12:25;;;;;;;8.02;2.80;;;11.80;71.70;;;;;;5063706;28;20092;-70
2021/08/13 04:14:52;;;;;;;3.90;2.10;;;11.80;71.80;;;;;;5057964;28;20021;-70
2021/08/13 04:17:58;;;;;;;8.55;2.22;;;11.70;71.70;;;;;;5049219;28;20024;-71
2021/08/13 04:20:26;;;;;;;6.47;1.88;;;11.70;71.70;;;;;;5049166;28;20051;-74
2021/08/13 04:22:53;;;;;;;49.50;31.98;;;11.70;71.90;;;;;;5049600;28;20060;-72
2021/08/13 04:25:19;;;;;;;27.83;15.35;;;11.70;72.20;;;;;;5047395;28;20579;-71
2021/08/13 04:27:46;;;;;;;13.00;7.00;;;11.70;72.10;;;;;;5052375;28;20044;-66
2021/08/13 04:30:13;;;;;;;7.60;3.72;;;11.70;71.90;;;;;;5047264;28;20464;-69
2021/08/13 04:32:41;;;;;;;6.38;1.63;;;11.70;71.80;;;;;;5048912;28;20014;-71
2021/08/13 04:35:09;;;;;;;2.28;1.00;;;11.70;71.70;;;;;;5048952;28;20048;-70
2021/08/13 04:37:35;;;;;;;6.50;1.40;;;11.70;71.70;;;;;;5048530;28;20060;-67
2021/08/13 04:40:02;;;;;;;2.88;1.42;;;11.70;71.80;;;;;;5048075;28;20025;-71
2021/08/13 04:42:29;;;;;;;4.53;1.30;;;11.70;71.70;;;;;;5046474;28;20025;-69
2021/08/13 04:44:55;;;;;;;9.15;1.92;;;11.70;71.70;;;;;;5047919;28;20028;-72
2021/08/13 04:47:21;;;;;;;6.10;1.50;;;11.60;71.60;;;;;;5045990;28;20096;-71
2021/08/13 04:49:48;;;;;;;5.40;1.70;;;11.60;71.70;;;;;;5046912;28;20013;-71
2021/08/13 04:52:15;;;;;;;6.10;1.75;;;11.60;71.80;;;;;;5047417;28;20098;-76
2021/08/13 04:54:41;;;;;;;9.52;3.10;;;11.60;72.00;;;;;;5046653;28;20048;-74
2021/08/13 04:57:08;;;;;;;5.13;1.92;;;11.60;71.70;;;;;;5050041;28;20380;-71
2021/08/13 04:59:34;;;;;;;6.30;1.77;;;11.60;71.70;;;;;;5045068;28;20110;-72
2021/08/13 05:02:40;;;;;;;5.15;1.20;;;11.60;71.60;;;;;;5045838;28;20028;-71
2021/08/13 05:05:48;;;;;;;13.10;3.33;;;11.50;71.40;;;;;;5042359;28;20507;-71
2021/08/13 05:08:16;;;;;;;3.25;1.40;;;11.50;71.30;;;;;;5042029;28;20044;-71
2021/08/13 05:10:42;;;;;;;11.60;1.63;;;11.50;71.40;;;;;;5041125;28;20101;-71
2021/08/13 05:13:08;;;;;;;6.20;1.73;;;11.50;71.30;;;;;;5045852;28;20572;-71
2021/08/13 05:15:35;;;;;;;4.78;2.17;;;11.50;71.20;;;;;;5043265;28;20045;-70
2021/08/13 05:18:05;;;;;;;4.00;1.20;;;11.40;71.30;;;;;;5044182;28;20059;-70
2021/08/13 05:20:32;;;;;;;6.30;1.52;;;11.40;71.60;;;;;;5044984;28;20033;-72
2021/08/13 05:22:59;;;;;;;8.73;1.63;;;11.40;71.70;;;;;;5044504;28;20070;-74
2021/08/13 05:25:25;;;;;;;4.60;1.52;;;11.50;71.80;;;;;;5046080;28;20028;-73
2021/08/13 05:27:52;;;;;;;7.28;2.22;;;11.40;72.50;;;;;;5051611;28;20341;-73
2021/08/13 05:30:18;;;;;;;6.47;2.17;;;11.40;71.90;;;;;;5041201;28;20020;-71
2021/08/13 05:32:47;;;;;;;9.90;3.22;;;11.40;71.80;;;;;;5042873;28;20068;-70
2021/08/13 05:35:14;;;;;;;5.45;2.05;;;11.40;71.70;;;;;;5043576;28;20044;-71
2021/08/13 05:37:41;;;;;;;9.77;2.83;;;11.40;71.80;;;;;;5046535;28;20025;-70
2021/08/13 05:40:10;;;;;;;5.78;2.65;;;11.40;72.00;;;;;;5046012;28;20057;-72
2021/08/13 05:42:37;;;;;;;6.88;1.95;;;11.40;72.00;;;;;;5048799;28;20017;-71
2021/08/13 05:45:04;;;;;;;3.40;1.77;;;11.40;72.30;;;;;;5047369;28;20585;-70
2021/08/13 05:47:33;;;;;;;8.38;3.08;;;11.40;72.30;;;;;;5045749;28;20091;-70
2021/08/13 05:49:59;;;;;;;2.88;1.48;;;11.40;72.40;;;;;;5047609;28;20112;-71
2021/08/13 05:52:26;;;;;;;8.95;2.20;;;11.40;72.60;;;;;;5044150;28;20069;-71
2021/08/13 05:54:52;;;;;;;6.47;2.03;;;11.40;72.50;;;;;;5050746;28;20045;-71
2021/08/13 05:57:19;;;;;;;6.18;2.03;;;11.40;72.60;;;;;;5056391;28;20056;-72
2021/08/13 05:59:45;;;;;;;7.53;1.90;;;11.40;72.50;;;;;;5059576;28;20093;-70
2021/08/13 06:02:16;;;;;;;7.78;2.45;;;11.40;72.60;;;;;;5058398;28;20016;-72
2021/08/13 06:04:42;;;;;;;14.90;2.72;;;11.40;72.80;;;;;;5053962;28;20017;-72
2021/08/13 06:07:09;;;;;;;9.90;3.10;;;11.40;72.80;;;;;;5055122;28;20013;-71
2021/08/13 06:09:35;;;;;;;10.55;1.67;;;11.40;73.00;;;;;;5055675;28;20475;-71
2021/08/13 06:12:02;;;;;;;6.03;2.25;;;11.40;73.10;;;;;;5057100;28;20475;-72
2021/08/13 06:14:28;;;;;;;4.15;1.83;;;11.40;73.30;;;;;;5054801;28;20032;-73
2021/08/13 06:16:55;;;;;;;8.75;2.03;;;11.40;73.60;;;;;;5059126;28;20033;-74
2021/08/13 06:19:21;;;;;;;8.68;2.22;;;11.30;73.90;;;;;;5056235;28;20021;-74
2021/08/13 06:21:47;;;;;;;13.05;2.70;;;11.40;74.10;;;;;;5051317;28;20028;-72
2021/08/13 06:24:14;;;;;;;6.90;2.75;;;11.40;74.10;;;;;;5055258;28;20102;-72
2021/08/13 06:26:40;;;;;;;6.63;2.63;;;11.40;74.40;;;;;;5053119;28;20025;-71
2021/08/13 06:29:07;;;;;;;6.05;2.38;;;11.40;74.60;;;;;;5055097;28;20025;-71
2021/08/13 06:31:33;;;;;;;9.98;3.25;;;11.40;74.70;;;;;;5051319;28;20478;-72
2021/08/13 06:34:39;;;;;;;9.77;4.18;;;11.40;74.70;;;;;;5052154;28;20012;-70
2021/08/13 06:37:46;;;;;;;6.28;3.15;;;11.40;74.80;;;;;;5054059;28;20025;-73
2021/08/13 06:40:52;;;;;;;9.40;4.85;;;11.40;75.00;;;;;;5055418;28;20028;-70
2021/08/13 06:43:58;;;;;;;10.13;5.00;;;11.40;75.00;;;;;;5057179;28;20032;-70
2021/08/13 06:47:04;;;;;;;9.88;4.72;;;11.40;75.10;;;;;;5052710;28;20020;-70
2021/08/13 06:50:10;;;;;;;9.95;4.07;;;11.50;75.40;;;;;;5055984;28;20023;-71
2021/08/13 06:53:16;;;;;;;6.30;4.03;;;11.50;75.50;;;;;;5051437;28;20672;-69
2021/08/13 06:56:23;;;;;;;13.20;3.40;;;11.60;75.50;;;;;;5052111;28;20090;-70
2021/08/13 06:59:29;;;;;;;9.02;2.78;;;11.60;75.60;;;;;;5055021;28;20017;-70
2021/08/13 07:02:35;;;;;;;6.68;2.65;;;11.70;75.60;;;;;;5055511;28;20115;-70
2021/08/13 07:05:41;;;;;;;8.55;2.67;;;11.70;75.30;;;;;;5068967;28;20025;-71
2021/08/13 07:08:48;;;;;;;9.38;3.33;;;11.90;74.20;;;;;;5050571;28;20022;-70
2021/08/13 07:11:54;;;;;;;9.38;3.15;;;11.90;74.00;;;;;;5048069;28;20119;-73
2021/08/13 07:15:00;;;;;;;7.03;2.25;;;12.00;74.30;;;;;;5054189;28;20013;-70
2021/08/13 07:18:06;;;;;;;8.38;2.03;;;12.00;74.70;;;;;;5058939;28;20017;-70
2021/08/13 07:21:12;;;;;;;5.85;1.92;;;12.10;74.40;;;;;;5055267;28;20037;-71
2021/08/13 07:24:21;;;;;;;10.07;1.92;;;12.20;73.50;;;;;;5057696;28;20071;-71
2021/08/13 07:27:28;;;;;;;8.07;3.20;;;12.20;72.60;;;;;;5054338;28;20062;-70
2021/08/13 07:30:34;;;;;;;5.78;2.03;;;12.30;71.50;;;;;;5057633;28;20067;-70
2021/08/13 07:33:40;;;;;;;4.05;1.95;;;12.40;69.90;;;;;;5065805;28;20025;-70
2021/08/13 07:36:46;;;;;;;5.10;2.22;;;12.40;68.00;;;;;;5054565;28;20013;-70
2021/08/13 07:39:52;;;;;;;3.33;1.30;;;12.50;66.10;;;;;;5054055;28;20044;-70
2021/08/13 07:42:58;;;;;;;3.55;1.95;;;12.60;65.90;;;;;;5052310;28;20029;-70
2021/08/13 07:46:05;;;;;;;5.20;1.98;;;12.70;65.50;;;;;;5054600;28;20025;-68
2021/08/13 07:49:11;;;;;;;6.70;1.60;;;12.80;64.80;;;;;;5057728;28;20028;-69
2021/08/13 07:52:17;;;;;;;7.50;1.77;;;12.90;64.50;;;;;;5060307;28;20017;-69
2021/08/13 07:55:23;;;;;;;8.93;2.42;;;13.00;63.40;;;;;;5056972;28;20416;-70
2021/08/13 07:58:29;;;;;;;6.05;1.35;;;13.00;62.40;;;;;;5058295;28;20103;-69
2021/08/13 08:01:35;;;;;;;3.85;2.10;;;13.20;61.80;;;;;;5058848;28;20068;-69
2021/08/13 08:04:41;;;;;;;3.03;1.40;;;13.30;61.30;;;;;;5057389;28;20014;-71
2021/08/13 08:07:47;;;;;;;2.17;1.15;;;13.30;61.80;;;;;;5055670;28;20472;-68
2021/08/13 08:10:53;;;;;;;4.63;2.00;;;13.40;61.20;;;;;;5057376;28;20024;-68
2021/08/13 08:13:59;;;;;;;8.07;1.52;;;13.60;59.80;;;;;;5059533;28;20043;-68
2021/08/13 08:17:05;;;;;;;2.50;0.90;;;13.70;59.50;;;;;;5055963;28;20028;-67
2021/08/13 08:20:11;;;;;;;4.60;1.20;;;13.80;59.80;;;;;;5056050;28;20166;-69
2021/08/13 08:23:17;;;;;;;3.58;0.52;;;13.90;57.80;;;;;;5056493;28;20051;-68
2021/08/13 08:26:23;;;;;;;3.78;0.80;;;14.00;57.10;;;;;;5057597;28;20073;-68
2021/08/13 08:29:29;;;;;;;6.22;0.82;;;14.10;57.00;;;;;;5059925;28;20075;-67
2021/08/13 08:32:35;;;;;;;0.77;0.75;;;14.20;57.20;;;;;;5057999;28;20558;-68
2021/08/13 08:35:41;;;;;;;1.95;1.50;;;14.30;55.90;;;;;;5062324;28;20589;-68
2021/08/13 08:38:47;;;;;;;2.63;1.05;;;14.30;55.90;;;;;;5054228;28;20017;-68
2021/08/13 08:41:53;;;;;;;7.75;1.48;;;14.40;56.40;;;;;;5060567;28;20055;-68
2021/08/13 08:45:00;;;;;;;2.70;1.10;;;14.50;56.60;;;;;;5063720;28;20671;-69
2021/08/13 08:48:03;;;;;;;2.13;0.95;;;14.60;56.20;;;;;;5060454;28;20021;-68
2021/08/13 08:50:31;;;;;;;4.30;2.15;;;14.60;56.40;;;;;;5058020;28;20479;-68
2021/08/13 08:53:00;;;;;;;2.38;0.52;;;14.70;57.30;;;;;;5060644;28;20024;-68
2021/08/13 08:55:27;;;;;;;3.00;0.95;;;14.70;55.40;;;;;;5055748;28;20887;-68
2021/08/13 08:57:55;;;;;;;1.00;0.60;;;14.80;54.90;;;;;;5055477;28;20393;-67
2021/08/13 09:00:24;;;;;;;2.92;0.95;;;14.90;54.40;;;;;;5059055;28;20084;-68
2021/08/13 09:02:53;;;;;;;1.50;0.90;;;14.90;54.50;;;;;;5058172;28;20016;-68
2021/08/13 09:05:20;;;;;;;4.57;1.30;;;15.00;52.50;;;;;;5057974;28;20027;-68
2021/08/13 09:07:46;;;;;;;3.92;0.95;;;15.10;52.20;;;;;;5057921;28;20020;-68
2021/08/13 09:10:13;;;;;;;3.92;0.82;;;15.20;52.10;;;;;;5054170;28;20021;-68
2021/08/13 09:12:41;;;;;;;1.15;0.73;;;15.30;50.20;;;;;;5060433;28;20009;-68
2021/08/13 09:15:35;;;;;;;1.38;0.60;;;15.50;49.00;;;;;;5057868;28;20013;-68
2021/08/13 09:18:15;;;;;;;8.30;1.33;;;15.60;47.90;;;;;;5057480;28;20503;-67
2021/08/13 09:21:01;;;;;;;8.05;0.85;;;15.70;47.80;;;;;;5058057;28;20076;-68
2021/08/13 09:23:45;;;;;;;0.93;0.40;;;15.80;47.50;;;;;;5053421;28;20748;-70
2021/08/13 09:26:18;;;;;;;1.67;0.68;;;15.90;47.00;;;;;;5055029;28;20025;-71
2021/08/13 09:28:53;;;;;;;1.08;0.40;;;16.00;46.90;;;;;;5059351;28;20154;-70
2021/08/13 09:31:23;;;;;;;;;;;16.10;46.60;;;;;;5060294;28;20020;-70
2021/08/13 09:33:52;;;;;;;0.88;0.68;;;16.20;45.70;;;;;;5058650;28;19911;-67
2021/08/13 09:36:24;;;;;;;0.82;0.32;;;16.30;45.40;;;;;;5067498;28;20044;-69
2021/08/13 09:39:11;;;;;;;1.75;0.65;;;16.40;44.80;;;;;;5049665;28;20376;-70
2021/08/13 09:41:49;;;;;;;2.08;0.70;;;16.40;43.80;;;;;;5050252;28;20033;-70
2021/08/13 09:44:25;;;;;;;1.25;0.55;;;16.50;44.30;;;;;;5063231;28;20020;-70
2021/08/13 09:47:03;;;;;;;0.57;0.30;;;16.50;44.70;;;;;;5051841;28;20022;-70
2021/08/13 09:49:35;;;;;;;1.20;0.47;;;16.60;44.10;;;;;;5052963;28;20040;-69
2021/08/13 09:52:21;;;;;;;4.18;0.40;;;16.60;43.80;;;;;;5056792;28;20036;-67
2021/08/13 09:55:03;;;;;;;1.45;0.40;;;16.70;44.40;;;;;;5053942;28;20094;-69
2021/08/13 09:57:42;;;;;;;4.55;0.50;;;16.80;44.80;;;;;;5059559;28;20021;-70
2021/08/13 10:00:10;;;;;;;2.42;0.35;;;16.90;44.40;;;;;;5059407;28;20024;-69
2021/08/13 10:02:38;;;;;;;1.55;0.45;;;17.00;44.80;;;;;;5059061;28;20025;-69
2021/08/13 10:05:20;;;;;;;3.58;0.30;;;17.10;44.80;;;;;;5056525;28;20411;-69
2021/08/13 10:07:50;;;;;;;4.55;0.60;;;17.10;45.20;;;;;;5054546;28;20450;-69
2021/08/13 10:10:22;;;;;;;1.85;0.35;;;17.20;45.20;;;;;;5052660;28;20020;-72
2021/08/13 10:12:49;;;;;;;3.70;0.63;;;17.30;44.50;;;;;;5054451;28;20021;-70
2021/08/13 10:15:33;;;;;;;3.05;0.63;;;17.30;44.30;;;;;;5061716;28;20029;-68
2021/08/13 10:18:03;;;;;;;1.67;0.70;;;17.30;44.40;;;;;;5056332;28;20021;-69
2021/08/13 10:20:33;;;;;;;0.85;0.30;;;17.30;45.00;;;;;;5058622;28;20418;-67
2021/08/13 10:23:00;;;;;;;0.73;0.40;;;17.40;45.20;;;;;;5057306;28;20385;-69
2021/08/13 10:25:27;;;;;;;2.58;0.57;;;17.50;44.50;;;;;;5057832;28;20008;-70
2021/08/13 10:27:53;;;;;;;0.77;0.38;;;17.50;44.70;;;;;;5053857;28;20024;-71
2021/08/13 10:30:22;;;;;;;3.28;0.47;;;17.60;42.60;;;;;;5060167;28;20519;-68
2021/08/13 10:32:51;;;;;;;1.05;0.60;;;17.70;41.50;;;;;;5054733;28;20525;-69
2021/08/13 10:35:18;;;;;;;1.92;0.60;;;17.80;41.50;;;;;;5059613;28;20490;-68
2021/08/13 10:37:45;;;;;;;3.53;0.90;;;17.90;42.50;;;;;;5056713;28;20016;-67
2021/08/13 10:40:12;;;;;;;2.08;1.05;;;18.00;43.60;;;;;;5056315;28;20126;-69
2021/08/13 10:42:44;;;;;;;5.47;0.95;;;18.00;43.30;;;;;;5053061;28;20017;-69
2021/08/13 10:45:15;;;;;;;3.67;0.93;;;18.10;42.80;;;;;;5060831;28;20074;-69
2021/08/13 10:48:09;;;;;;;0.77;0.45;;;18.10;43.10;;;;;;5052480;28;20020;-69
2021/08/13 10:50:37;;;;;;;1.45;0.90;;;18.20;43.10;;;;;;5056617;28;20021;-70
2021/08/13 10:53:23;;;;;;;4.10;0.90;;;18.30;42.70;;;;;;5056296;28;20021;-69
2021/08/13 10:55:53;;;;;;;;;;;18.30;42.90;;;;;;5053971;28;20816;-69
2021/08/13 10:58:41;;;;;;;2.53;1.08;;;18.40;42.10;;;;;;5058217;28;19927;-70
2021/08/13 11:01:20;;;;;;;1.48;0.60;;;18.40;42.00;;;;;;5053178;28;20029;-69
2021/08/13 11:03:55;;;;;;;2.83;0.50;;;18.50;41.70;;;;;;5055181;28;20025;-69
2021/08/13 11:06:37;;;;;;;1.02;0.95;;;18.60;41.70;;;;;;5058085;28;20870;-70
2021/08/13 11:09:10;;;;;;;1.42;0.70;;;18.70;40.80;;;;;;5054471;28;20024;-68
2021/08/13 11:11:53;;;;;;;3.47;0.50;;;18.80;40.90;;;;;;5055510;28;20416;-69
2021/08/13 11:14:24;;;;;;;0.35;0.30;;;18.90;41.50;;;;;;5056254;28;20025;-68
2021/08/13 11:16:52;;;;;;;2.05;0.30;;;19.00;41.30;;;;;;5054552;28;20017;-69
2021/08/13 11:19:19;;;;;;;4.28;1.42;;;19.00;41.30;;;;;;5055682;28;20021;-69
2021/08/13 11:21:49;;;;;;;1.98;0.45;;;19.10;41.20;;;;;;5059702;28;20082;-69
2021/08/13 11:24:24;;;;;;;1.70;0.50;;;19.20;41.40;;;;;;5058283;28;20029;-70
2021/08/13 11:26:53;;;;;;;2.13;0.60;;;19.30;41.50;;;;;;5058287;28;20029;-70
2021/08/13 11:29:35;;;;;;;1.85;0.40;;;19.30;41.70;;;;;;5057331;28;20708;-71
2021/08/13 11:32:21;;;;;;;1.25;0.45;;;19.40;40.90;;;;;;5062853;28;20024;-69
2021/08/13 11:35:03;;;;;;;5.93;0.50;;;19.40;40.70;;;;;;5054533;28;20020;-70
2021/08/13 11:37:42;;;;;;;3.85;0.55;;;19.40;40.90;;;;;;5056418;28;20021;-69
2021/08/13 11:40:14;;;;;;;1.27;1.10;;;19.40;41.00;;;;;;5058447;28;20483;-69
2021/08/13 11:42:52;;;;;;;3.00;0.60;;;19.40;41.10;;;;;;5058141;28;20021;-69
2021/08/13 11:45:20;;;;;;;3.88;0.80;;;19.40;40.80;;;;;;5058596;28;20464;-70
2021/08/13 11:47:48;;;;;;;3.33;0.63;;;19.50;40.00;;;;;;5055614;28;20044;-69
2021/08/13 11:50:14;;;;;;;1.20;0.70;;;19.50;39.40;;;;;;5062687;28;20506;-71
2021/08/13 11:52:51;;;;;;;1.75;0.50;;;19.50;38.70;;;;;;5059793;28;20154;-70
2021/08/13 11:55:25;;;;;;;3.55;0.68;;;19.50;38.90;;;;;;5057374;28;20044;-69
2021/08/13 11:57:53;;;;;;;0.75;0.75;;;19.50;39.50;;;;;;5059228;28;20380;-72
2021/08/13 12:00:22;;;;;;;2.85;0.60;;;19.50;40.00;;;;;;5058884;28;20037;-67
2021/08/13 12:02:56;;;;;;;1.13;0.45;;;19.60;39.80;;;;;;5058328;28;20400;-69
2021/08/13 12:05:22;;;;;;;3.30;0.47;;;19.70;40.20;;;;;;5051282;28;20053;-67
2021/08/13 12:07:58;;;;;;;0.98;0.40;;;19.80;39.30;;;;;;5061515;28;20032;-69
2021/08/13 12:10:25;;;;;;;2.35;0.88;;;19.70;39.30;;;;;;5055943;28;20020;-69
2021/08/13 12:12:51;;;;;;;1.42;0.60;;;19.70;39.20;;;;;;5057580;28;20016;-70
2021/08/13 12:15:30;;;;;;;1.67;0.63;;;19.80;39.70;;;;;;5064472;28;20012;-69
2021/08/13 12:17:57;;;;;;;0.95;0.60;;;19.90;39.40;;;;;;5058623;28;20073;-68
2021/08/13 12:20:23;;;;;;;1.63;0.60;;;19.90;39.30;;;;;;5062501;28;20079;-69
2021/08/13 12:22:58;;;;;;;3.33;0.63;;;20.10;39.20;;;;;;5058240;28;20016;-69
2021/08/13 12:25:34;;;;;;;1.30;0.73;;;20.10;38.80;;;;;;5042916;28;20067;-69
2021/08/13 12:28:01;;;;;;;2.38;0.88;;;20.20;38.50;;;;;;5057644;28;20257;-69
2021/08/13 12:30:27;;;;;;;1.40;0.70;;;20.30;38.10;;;;;;5059907;28;20566;-69
2021/08/13 12:32:56;;;;;;;3.33;0.65;;;20.40;38.00;;;;;;5057274;28;20013;-68
2021/08/13 12:35:23;;;;;;;1.50;0.40;;;20.40;37.70;;;;;;5059141;28;20025;-70
2021/08/13 12:37:50;;;;;;;0.50;0.40;;;20.40;37.80;;;;;;5064799;28;20089;-69
2021/08/13 12:40:18;;;;;;;1.85;0.30;;;20.30;36.70;;;;;;5060016;28;20548;-69
2021/08/13 12:42:47;;;;;;;0.95;0.50;;;20.40;37.70;;;;;;5060047;28;20013;-69
2021/08/13 12:45:14;;;;;;;1.50;0.60;;;20.40;37.70;;;;;;5056987;28;20059;-69
2021/08/13 12:47:45;;;;;;;1.35;0.30;;;20.40;37.30;;;;;;5057116;28;20027;-69
2021/08/13 12:50:22;;;;;;;3.22;0.50;;;20.40;36.90;;;;;;5062957;28;20020;-69
2021/08/13 12:53:34;;;;;;;1.00;0.28;;;20.40;36.60;;;;;;5051412;28;20384;-69
2021/08/13 12:56:01;;;;;;;0.60;0.30;;;20.40;36.70;;;;;;5017686;28;20054;-69
2021/08/13 12:58:36;;;;;;;0.52;0.30;;;20.30;37.40;;;;;;5053122;28;20581;-68
2021/08/13 13:01:27;;;;;;;2.55;0.20;;;20.30;37.40;;;;;;5056260;28;20082;-69
2021/08/13 13:04:14;;;;;;;0.70;0.30;;;20.30;36.50;;;;;;5058670;28;20477;-69
2021/08/13 13:06:42;;;;;;;1.05;0.40;;;20.20;37.00;;;;;;5060625;28;20039;-69
2021/08/13 13:09:09;;;;;;;1.95;0.30;;;20.20;37.00;;;;;;5062488;28;20013;-70
2021/08/13 13:11:36;;;;;;;0.73;0.20;;;20.20;37.40;;;;;;5062460;28;20072;-72
2021/08/13 13:14:04;;;;;;;0.22;0.20;;;20.20;37.70;;;;;;5053063;28;20372;-69
2021/08/13 13:16:36;;;;;;;1.35;0.68;;;20.20;37.10;;;;;;5061659;28;20152;-70
2021/08/13 13:19:20;;;;;;;0.70;0.50;;;20.20;37.20;;;;;;5058942;28;20016;-70
2021/08/13 13:21:47;;;;;;;1.27;0.32;;;20.20;37.40;;;;;;5053905;28;20033;-69
2021/08/13 13:24:32;;;;;;;1.08;0.30;;;20.20;37.80;;;;;;5059790;28;20392;-68
2021/08/13 13:27:01;;;;;;;1.70;1.08;;;20.10;38.10;;;;;;5043491;28;20024;-69
2021/08/13 13:29:46;;;;;;;1.63;0.47;;;20.10;38.40;;;;;;5060971;28;20051;-68
2021/08/13 13:32:20;;;;;;;;;;;20.00;38.40;;;;;;5054984;28;20479;-70
2021/08/13 13:35:00;;;;;;;1.73;0.32;;;20.00;38.10;;;;;;5054456;28;19943;-71
2021/08/13 13:37:28;;;;;;;1.55;0.22;;;19.90;38.50;;;;;;5058070;28;20107;-69
2021/08/13 13:39:55;;;;;;;1.25;0.45;;;19.80;38.40;;;;;;5053969;28;20050;-68
2021/08/13 13:42:27;;;;;;;1.13;0.30;;;19.80;38.80;;;;;;5063233;28;20052;-69
2021/08/13 13:45:11;;;;;;;1.17;0.40;;;19.90;39.00;;;;;;5056352;28;20024;-69